This is the latest recevied weather packets stored in our database for station/object KF0JHJ. If no packets are shown the sender has not sent any weather packets the latest 10 day(s).
| Time | Temp. | Humidity | Pressure | Rain* | Wind** | Luminosity | Snow |
|---|---|---|---|---|---|---|---|
| 1777923422 | 15.56° C | 41% | 999.3 hPa | - | - | 472 W/m² | - |
| 1777923120 | 16.11° C | 40% | 999.4 hPa | - | - | 626 W/m² | - |
| 1777922818 | 15.56° C | 43% | 999.7 hPa | - | - | 478 W/m² | - |
| 1777922516 | 15° C | 44% | 999.3 hPa | - | - | 464 W/m² | - |
| 1777922214 | 15° C | 43% | 999.3 hPa | - | - | 295 W/m² | - |
| 1777921910 | 15.56° C | 41% | 999.2 hPa | - | - | 453 W/m² | - |
| 1777921606 | 15.56° C | 43% | 999.3 hPa | - | - | 536 W/m² | - |
| 1777921303 | 15° C | 42% | 998.9 hPa | - | - | 489 W/m² | - |
| 1777920999 | 15° C | 40% | 998.9 hPa | - | - | 414 W/m² | - |
| 1777920696 | 15.56° C | 41% | 999.1 hPa | - | - | 504 W/m² | - |
| 1777920392 | 15.56° C | 45% | 998.8 hPa | - | - | 517 W/m² | - |
| 1777920087 | 15° C | 43% | 999.1 hPa | - | - | 576 W/m² | - |
| 1777919784 | 14.44° C | 45% | 998.8 hPa | - | - | 212 W/m² | - |
| 1777919482 | 14.44° C | 45% | 998.9 hPa | - | - | 190 W/m² | - |
| 1777919180 | 14.44° C | 44% | 999.2 hPa | - | - | 197 W/m² | - |
| 1777918877 | 14.44° C | 44% | 998.6 hPa | - | - | 208 W/m² | - |
| 1777918574 | 14.44° C | 45% | 998.8 hPa | - | - | 206 W/m² | - |
| 1777918271 | 15° C | 43% | 998.8 hPa | - | - | 187 W/m² | - |
| 1777917970 | 15° C | 43% | 998.6 hPa | - | - | 261 W/m² | - |
| 1777917669 | 15.56° C | 42% | 998.5 hPa | - | - | 610 W/m² | - |
| 1777917366 | 16.11° C | 40% | 998.3 hPa | - | - | 646 W/m² | - |
| 1777917062 | 16.11° C | 39% | 998.3 hPa | - | - | 574 W/m² | - |
| 1777916761 | 16.67° C | 40% | 998.2 hPa | - | - | 620 W/m² | - |
| 1777916457 | 16.11° C | 40% | 998.3 hPa | - | - | 303 W/m² | - |
| 1777916154 | 16.11° C | 39% | 998.2 hPa | - | - | 464 W/m² | - |
* Rain since midnight (hover to see other rain measurements)
** Current wind speed in m/s (hover to see current wind gust speed)